Aérodrome :
LOGIN :

S'inscrire | Disclaimer

   EN    FR    IT 

 










Légende :    VFR   VFR Marginal   IFR   IFR Intensif   IFR Très Intensif
Visi : 
Plafond : 
>= 8 km
>= 3000ft
5 à 8 km
1000 à 3000 ft
1500m à 5 km
500 à 1000 ft
800 à 1500m
200 à 500 ft
< 800m
< 200 ft
Symboles :   Orages  Brouillard  Fortes neiges  Fortes précipitations  Vent > 20 kt
SIGMETs :   Divers  Orages  Givrage  Turbulence  Onde Orograph.  Cendres Volcan.






- Altitude de l'aérodrome : 267 ft


EGDR - Culdrose Navy

DERNIER METAR :
  • 020550Z 33006KT 9999 FEW010 OVC040 07/03 Q1020 BLU

METARs EXPIRÉS :
  • 020450Z AUTO 35005KT 9999 // OVC040/// 06/02 Q1020
  • 020350Z AUTO 35005KT 9999 // OVC042/// 07/02 Q1021
  • 020250Z AUTO 36006KT 9999 // BKN045/// 06/02 Q1021

TAF TAF EGDR
Valide du 02 à 06h jusqu'au 02 à 15h UTC


020450Z 0206/0215 34008KT 9999 BKN040
BECMG 0207/0209 FEW008 BKN015
TEMPO 0209/0215 7000 -RADZ SCT008
PROB30
TEMPO 0211/0215 3500 RADZ SCT006 BKN008



MET'MAP, la Météo Aéronautique d'un coup d'oeil ! - Copyright ORBIFLY Décembre 2007 - Disclaimer

ORBIFLY MET'MAP TEAM :

Programmation & Développement : Alexandra Zaïnal
Sur une idée originale de : Baudouin d'Aumeries
Assistance à la programmation : Marc-Olivier Méhu
Soutien technique & logistique : Manuel Goepfert

Contact : metmap@orbifly.com




SOURCES & CREDITS :

   NOAA